createdAt,value
2023-02-02T00:00:45.713Z,5.5
2023-02-02T00:01:45.678Z,5.59
2023-02-02T00:02:45.800Z,5.48
2023-02-02T00:03:45.854Z,5.51
2023-02-02T00:04:45.603Z,5.48
2023-02-02T00:05:45.582Z,5.61
2023-02-02T00:06:45.552Z,5.51
2023-02-02T00:07:45.533Z,5.5
2023-02-02T00:08:45.516Z,5.51
2023-02-02T00:09:45.478Z,5.51
2023-02-02T00:10:45.513Z,5.47
2023-02-02T00:11:45.459Z,5.54
2023-02-02T00:12:45.429Z,5.54
2023-02-02T00:13:45.388Z,5.57
2023-02-02T00:14:45.362Z,5.56
2023-02-02T00:15:45.413Z,5.53
2023-02-02T00:16:45.358Z,5.66
2023-02-02T00:17:45.289Z,5.59
2023-02-02T00:18:45.268Z,5.56
2023-02-02T00:19:45.242Z,5.64
2023-02-02T00:20:45.304Z,5.57
2023-02-02T00:21:45.231Z,5.54
2023-02-02T00:22:45.171Z,5.62
2023-02-02T00:23:45.142Z,5.57
2023-02-02T00:24:45.125Z,5.53
2023-02-02T00:25:45.301Z,5.62
2023-02-02T00:26:45.377Z,5.57
2023-02-02T00:27:45.056Z,5.57
2023-02-02T00:28:45.030Z,5.59
2023-02-02T00:29:45.001Z,5.65
2023-02-02T00:30:44.912Z,5.62
2023-02-02T00:31:45.315Z,5.64
2023-02-02T00:32:44.933Z,5.65
2023-02-02T00:33:44.904Z,5.62
2023-02-02T00:34:44.877Z,5.64
2023-02-02T00:35:44.846Z,5.65
2023-02-02T00:36:44.835Z,5.66
2023-02-02T00:37:44.810Z,5.65
2023-02-02T00:38:44.802Z,5.69
2023-02-02T00:39:44.757Z,5.65
2023-02-02T00:40:44.734Z,5.65
2023-02-02T00:41:44.740Z,5.72
2023-02-02T00:42:44.728Z,5.69
2023-02-02T00:43:44.677Z,5.65
2023-02-02T00:44:44.668Z,5.69
2023-02-02T00:45:44.718Z,5.71
2023-02-02T00:46:44.600Z,5.68
2023-02-02T00:47:44.652Z,5.69
2023-02-02T00:48:44.544Z,5.69
2023-02-02T00:49:44.525Z,5.65
2023-02-02T00:50:44.502Z,5.68
2023-02-02T00:51:44.470Z,5.71
2023-02-02T00:52:44.445Z,5.69
2023-02-02T00:53:44.416Z,5.66
2023-02-02T00:54:44.453Z,5.68
2023-02-02T00:55:44.375Z,5.69
2023-02-02T00:56:44.373Z,5.62
2023-02-02T00:57:44.487Z,5.66
2023-02-02T00:58:44.307Z,5.72
2023-02-02T00:59:44.283Z,5.73
2023-02-02T01:00:44.329Z,5.8
2023-02-02T01:01:44.306Z,5.69
2023-02-02T01:02:44.211Z,5.69
2023-02-02T01:03:44.279Z,5.66
2023-02-02T01:04:44.174Z,5.72
2023-02-02T01:05:44.138Z,5.69
2023-02-02T01:06:44.281Z,5.69
2023-02-02T01:07:44.091Z,5.79
2023-02-02T01:08:44.062Z,5.69
2023-02-02T01:09:44.038Z,5.8
2023-02-02T01:10:44.023Z,5.8
2023-02-02T01:11:44.009Z,5.69
2023-02-02T01:12:43.984Z,5.71
2023-02-02T01:13:43.952Z,5.82
2023-02-02T01:14:43.938Z,5.75
2023-02-02T01:15:43.902Z,5.71
2023-02-02T01:16:44.006Z,5.76
2023-02-02T01:17:43.884Z,5.79
2023-02-02T01:18:43.844Z,5.8
2023-02-02T01:19:43.879Z,5.75
2023-02-02T01:20:43.787Z,5.75
2023-02-02T01:21:43.761Z,5.76
2023-02-02T01:22:43.494Z,5.75
2023-02-02T01:23:43.708Z,5.76
2023-02-02T01:24:43.704Z,5.79
2023-02-02T01:25:43.664Z,5.8
2023-02-02T01:26:44.059Z,5.75
2023-02-02T01:27:45.652Z,5.89
2023-02-02T01:28:43.656Z,5.83
2023-02-02T01:29:43.563Z,5.84
2023-02-02T01:30:43.668Z,5.8
2023-02-02T01:31:43.666Z,5.86
2023-02-02T01:32:43.491Z,5.83
2023-02-02T01:33:43.538Z,5.86
2023-02-02T01:34:43.450Z,5.87
2023-02-02T01:35:43.497Z,5.91
2023-02-02T01:36:43.394Z,5.9
2023-02-02T01:37:43.394Z,5.94
2023-02-02T01:38:43.367Z,5.94
2023-02-02T01:39:43.316Z,5.94
2023-02-02T01:40:43.295Z,6.04
2023-02-02T01:41:43.276Z,5.91
2023-02-02T01:42:43.292Z,6.04
2023-02-02T01:43:43.270Z,6.07
2023-02-02T01:44:43.198Z,6.05
2023-02-02T01:45:43.250Z,6.07
2023-02-02T01:46:43.167Z,6.11
2023-02-02T01:47:43.141Z,6.11
2023-02-02T01:48:43.112Z,6.14
2023-02-02T01:49:43.102Z,6.07
2023-02-02T01:50:43.063Z,6.12
2023-02-02T01:51:43.120Z,6.11
2023-02-02T01:52:43.006Z,6.17
2023-02-02T01:53:42.977Z,6.14
2023-02-02T01:54:42.955Z,6.17
2023-02-02T01:55:42.941Z,6.19
2023-02-02T01:56:42.922Z,6.16
2023-02-02T01:57:42.891Z,6.19
2023-02-02T01:58:42.863Z,6.26
2023-02-02T01:59:42.839Z,6.19
2023-02-02T02:00:42.826Z,6.33
2023-02-02T02:01:42.801Z,6.3
2023-02-02T02:02:42.956Z,6.28
2023-02-02T02:03:42.747Z,6.27
2023-02-02T02:04:42.714Z,6.27
2023-02-02T02:05:42.689Z,6.38
2023-02-02T02:06:42.664Z,6.36
2023-02-02T02:07:42.716Z,6.33
2023-02-02T02:08:42.638Z,6.39
2023-02-02T02:09:42.588Z,6.3
2023-02-02T02:10:42.573Z,6.31
2023-02-02T02:11:42.547Z,6.41
2023-02-02T02:12:42.552Z,6.44
2023-02-02T02:13:42.498Z,6.38
2023-02-02T02:14:42.484Z,6.39
2023-02-02T02:15:42.455Z,6.45
2023-02-02T02:16:42.584Z,6.45
2023-02-02T02:17:42.395Z,6.49
2023-02-02T02:18:42.458Z,6.46
2023-02-02T02:19:42.335Z,6.54
2023-02-02T02:20:42.311Z,6.44
2023-02-02T02:21:42.295Z,6.46
2023-02-02T02:22:42.274Z,6.48
2023-02-02T02:23:42.420Z,6.54
2023-02-02T02:24:42.225Z,6.52
2023-02-02T02:25:42.209Z,6.54
2023-02-02T02:26:42.410Z,6.56
2023-02-02T02:27:42.155Z,6.46
2023-02-02T02:28:42.116Z,6.49
2023-02-02T02:29:42.094Z,6.52
2023-02-02T02:30:42.404Z,6.59
2023-02-02T02:31:42.461Z,6.59
2023-02-02T02:32:42.016Z,6.6
2023-02-02T02:33:41.997Z,6.63
2023-02-02T02:34:41.959Z,6.64
2023-02-02T02:35:41.954Z,6.6
2023-02-02T02:36:41.918Z,6.59
2023-02-02T02:37:41.921Z,6.66
2023-02-02T02:38:41.877Z,6.62
2023-02-02T02:39:41.952Z,6.66
2023-02-02T02:40:41.826Z,6.64
2023-02-02T02:41:41.792Z,6.66
2023-02-02T02:42:41.772Z,6.63
2023-02-02T02:43:41.748Z,6.63
2023-02-02T02:44:41.719Z,6.67
2023-02-02T02:45:41.722Z,6.62
2023-02-02T02:46:41.686Z,6.69
2023-02-02T02:47:41.661Z,6.69
2023-02-02T02:48:41.630Z,6.69
2023-02-02T02:49:41.602Z,6.7
2023-02-02T02:50:41.576Z,6.67
2023-02-02T02:51:41.659Z,6.74
2023-02-02T02:52:41.531Z,6.75
2023-02-02T02:53:41.505Z,6.75
2023-02-02T02:54:41.491Z,6.74
2023-02-02T02:55:41.707Z,6.72
2023-02-02T02:56:41.424Z,6.7
2023-02-02T02:57:41.423Z,6.74
2023-02-02T02:58:41.395Z,6.77
2023-02-02T02:59:41.379Z,6.79
2023-02-02T03:00:41.343Z,6.77
2023-02-02T03:01:41.537Z,6.79
2023-02-02T03:02:41.401Z,6.77
2023-02-02T03:03:41.262Z,6.79
2023-02-02T03:04:41.292Z,6.84
2023-02-02T03:05:41.205Z,6.75
2023-02-02T03:06:40.939Z,6.79
2023-02-02T03:07:41.160Z,6.88
2023-02-02T03:08:41.131Z,6.81
2023-02-02T03:09:41.129Z,6.88
2023-02-02T03:10:41.089Z,6.88
2023-02-02T03:11:41.125Z,6.85
2023-02-02T03:12:41.031Z,6.88
2023-02-02T03:13:41.031Z,6.89
2023-02-02T03:14:40.987Z,6.84
2023-02-02T03:15:41.064Z,6.85
2023-02-02T03:16:40.927Z,6.88
2023-02-02T03:17:40.900Z,6.85
2023-02-02T03:18:40.887Z,6.87
2023-02-02T03:19:40.884Z,6.88
2023-02-02T03:20:40.830Z,6.92
2023-02-02T03:21:40.805Z,6.92
2023-02-02T03:22:40.779Z,6.88
2023-02-02T03:23:40.758Z,6.88
2023-02-02T03:24:40.744Z,6.88
2023-02-02T03:25:40.501Z,6.93
2023-02-02T03:26:40.850Z,6.87
2023-02-02T03:27:40.740Z,6.89
2023-02-02T03:28:40.626Z,6.84
2023-02-02T03:29:40.597Z,6.85
2023-02-02T03:30:40.679Z,6.87
2023-02-02T03:31:40.675Z,6.88
2023-02-02T03:32:40.535Z,6.84
2023-02-02T03:33:40.525Z,6.89
2023-02-02T03:34:40.482Z,6.88
2023-02-02T03:35:40.460Z,6.93
2023-02-02T03:36:40.432Z,6.74
2023-02-02T03:37:40.427Z,6.81
2023-02-02T03:38:40.381Z,6.96
2023-02-02T03:39:40.356Z,6.93
2023-02-02T03:40:40.345Z,6.81
2023-02-02T03:41:40.317Z,6.82
2023-02-02T03:42:40.300Z,6.81
2023-02-02T03:43:40.334Z,6.84
2023-02-02T03:44:39.993Z,6.77
2023-02-02T03:45:40.259Z,6.85
2023-02-02T03:46:40.394Z,6.75
2023-02-02T03:47:40.179Z,6.72
2023-02-02T03:48:39.913Z,6.75
2023-02-02T03:49:40.127Z,6.74
2023-02-02T03:50:40.090Z,6.75
2023-02-02T03:51:40.058Z,6.7
2023-02-02T03:52:40.035Z,6.69
2023-02-02T03:53:40.035Z,6.67
2023-02-02T03:54:39.987Z,6.7
2023-02-02T03:55:39.983Z,6.74
2023-02-02T03:56:39.940Z,6.67
2023-02-02T03:57:39.916Z,6.66
2023-02-02T03:58:39.888Z,6.6
2023-02-02T03:59:39.999Z,6.67
2023-02-02T04:00:39.854Z,6.69
2023-02-02T04:01:39.965Z,6.64
2023-02-02T04:02:39.985Z,6.6
2023-02-02T04:03:39.789Z,6.72
2023-02-02T04:04:39.758Z,6.67
2023-02-02T04:05:39.711Z,6.63
2023-02-02T04:06:39.687Z,6.62
2023-02-02T04:07:39.661Z,6.62
2023-02-02T04:08:39.705Z,6.6
2023-02-02T04:09:39.623Z,6.48
2023-02-02T04:10:39.582Z,6.63
2023-02-02T04:11:41.699Z,6.51
2023-02-02T04:12:39.521Z,6.52
2023-02-02T04:13:39.501Z,6.49
2023-02-02T04:14:39.476Z,6.54
2023-02-02T04:15:39.521Z,6.57
2023-02-02T04:16:39.084Z,6.51
2023-02-02T04:17:39.405Z,6.48
2023-02-02T04:18:39.368Z,6.52
2023-02-02T04:19:39.355Z,6.54
2023-02-02T04:20:39.336Z,6.49
2023-02-02T04:21:39.311Z,6.48
2023-02-02T04:22:39.288Z,6.51
2023-02-02T04:23:39.284Z,6.46
2023-02-02T04:24:41.574Z,6.45
2023-02-02T04:25:39.201Z,6.52
2023-02-02T04:26:39.247Z,6.48
2023-02-02T04:27:39.188Z,6.49
2023-02-02T04:28:38.898Z,6.48
2023-02-02T04:29:39.086Z,6.48
2023-02-02T04:30:39.150Z,6.49
2023-02-02T04:31:39.256Z,6.46
2023-02-02T04:32:39.015Z,6.49
2023-02-02T04:33:38.985Z,6.46
2023-02-02T04:34:38.964Z,6.45
2023-02-02T04:35:38.994Z,6.48
2023-02-02T04:36:38.944Z,6.46
2023-02-02T04:37:38.903Z,6.46
2023-02-02T04:38:39.156Z,6.48
2023-02-02T04:39:38.828Z,6.49
2023-02-02T04:40:38.806Z,6.48
2023-02-02T04:41:38.788Z,6.46
2023-02-02T04:42:38.751Z,6.45
2023-02-02T04:43:38.730Z,6.48
2023-02-02T04:44:38.766Z,6.44
2023-02-02T04:45:38.831Z,6.49
2023-02-02T04:46:38.656Z,6.46
2023-02-02T04:47:38.694Z,6.48
2023-02-02T04:48:38.594Z,6.49
2023-02-02T04:49:38.562Z,6.52
2023-02-02T04:50:38.533Z,6.42
2023-02-02T04:51:38.515Z,6.52
2023-02-02T04:52:38.491Z,6.48
2023-02-02T04:53:38.467Z,6.51
2023-02-02T04:54:38.444Z,6.51
2023-02-02T04:55:38.433Z,6.49
2023-02-02T04:56:38.392Z,6.51
2023-02-02T04:57:38.364Z,6.51
2023-02-02T04:58:38.481Z,6.57
2023-02-02T04:59:39.881Z,6.54
2023-02-02T05:00:38.285Z,6.54
2023-02-02T05:01:38.250Z,6.6
2023-02-02T05:02:38.219Z,6.63
2023-02-02T05:03:38.269Z,6.64
2023-02-02T05:04:38.321Z,6.7
2023-02-02T05:05:38.151Z,6.63
2023-02-02T05:06:38.146Z,6.7
2023-02-02T05:07:38.100Z,6.51
2023-02-02T05:08:38.105Z,6.64
2023-02-02T05:09:38.049Z,6.63
2023-02-02T05:10:38.033Z,6.69
2023-02-02T05:11:37.992Z,6.57
2023-02-02T05:12:37.976Z,6.69
2023-02-02T05:13:37.958Z,6.64
2023-02-02T05:14:37.940Z,6.62
2023-02-02T05:15:37.903Z,6.7
2023-02-02T05:16:38.061Z,6.6
2023-02-02T05:17:37.880Z,6.69
2023-02-02T05:18:37.836Z,6.67
2023-02-02T05:19:37.924Z,6.7
2023-02-02T05:20:37.773Z,6.7
2023-02-02T05:21:37.745Z,6.69
2023-02-02T05:22:37.718Z,6.67
2023-02-02T05:23:37.521Z,6.75
2023-02-02T05:24:37.697Z,6.78
2023-02-02T05:25:37.657Z,6.78
2023-02-02T05:26:37.728Z,6.84
2023-02-02T05:27:37.592Z,6.85
2023-02-02T05:28:37.654Z,6.85
2023-02-02T05:29:37.563Z,6.84
2023-02-02T05:30:38.671Z,6.87
2023-02-02T05:31:37.646Z,6.87
2023-02-02T05:32:37.484Z,6.78
2023-02-02T05:33:37.434Z,6.85
2023-02-02T05:34:37.431Z,6.85
2023-02-02T05:35:37.472Z,6.88
2023-02-02T05:36:37.393Z,6.87
2023-02-02T05:37:37.342Z,6.92
2023-02-02T05:38:37.311Z,6.89
2023-02-02T05:39:37.302Z,6.93
2023-02-02T05:40:37.269Z,6.93
2023-02-02T05:41:37.248Z,6.89
2023-02-02T05:42:37.244Z,6.95
2023-02-02T05:43:37.229Z,6.97
2023-02-02T05:44:37.289Z,6.99
2023-02-02T05:45:37.263Z,7.02
2023-02-02T05:46:37.141Z,7.05
2023-02-02T05:47:37.109Z,7.02
2023-02-02T05:48:37.080Z,6.89
2023-02-02T05:49:37.051Z,6.99
2023-02-02T05:50:36.778Z,7.07
2023-02-02T05:51:37.140Z,7.06
2023-02-02T05:52:36.978Z,7.1
2023-02-02T05:53:36.973Z,7.2
2023-02-02T05:54:36.915Z,7.13
2023-02-02T05:55:36.651Z,7.18
2023-02-02T05:56:36.876Z,7.13
2023-02-02T05:57:36.911Z,7.1
2023-02-02T05:58:36.822Z,7.11
2023-02-02T05:59:36.800Z,7.13
2023-02-02T06:00:36.780Z,7.11
2023-02-02T06:01:36.746Z,7.11
2023-02-02T06:02:36.747Z,7.15
2023-02-02T06:03:37.084Z,7.2
2023-02-02T06:04:36.678Z,7.24
2023-02-02T06:05:36.650Z,7.15
2023-02-02T06:06:36.630Z,7.21
2023-02-02T06:07:36.682Z,7.17
2023-02-02T06:08:36.567Z,7.17
2023-02-02T06:09:36.558Z,7.2
2023-02-02T06:10:36.562Z,7.17
2023-02-02T06:11:36.502Z,7.25
2023-02-02T06:12:36.493Z,7.23
2023-02-02T06:13:36.445Z,7.21
2023-02-02T06:14:36.448Z,7.24
2023-02-02T06:15:36.613Z,7.24
2023-02-02T06:16:36.418Z,7.28
2023-02-02T06:17:36.361Z,7.32
2023-02-02T06:18:36.346Z,7.23
2023-02-02T06:19:36.323Z,7.28
2023-02-02T06:20:36.284Z,7.28
2023-02-02T06:21:36.274Z,7.24
2023-02-02T06:22:36.235Z,7.28
2023-02-02T06:23:36.327Z,7.29
2023-02-02T06:24:36.189Z,7.24
2023-02-02T06:25:36.193Z,7.24
2023-02-02T06:26:36.359Z,7.25
2023-02-02T06:27:36.113Z,7.29
2023-02-02T06:28:36.089Z,7.29
2023-02-02T06:29:35.823Z,7.2
2023-02-02T06:30:36.073Z,7.29
2023-02-02T06:31:36.670Z,7.25
2023-02-02T06:32:36.001Z,7.25
2023-02-02T06:33:35.971Z,7.28
2023-02-02T06:34:35.716Z,7.28
2023-02-02T06:35:35.928Z,7.29
2023-02-02T06:36:35.900Z,7.29
2023-02-02T06:37:35.877Z,7.18
2023-02-02T06:38:35.602Z,7.25
2023-02-02T06:39:35.887Z,7.28
2023-02-02T06:40:35.797Z,7.2
2023-02-02T06:41:35.777Z,7.28
2023-02-02T06:42:35.747Z,7.24
2023-02-02T06:43:35.720Z,7.24
2023-02-02T06:44:35.706Z,7.2
2023-02-02T06:45:35.678Z,7.21
2023-02-02T06:46:35.847Z,7.25
2023-02-02T06:47:35.416Z,7.31
2023-02-02T06:48:35.615Z,7.23
2023-02-02T06:49:35.336Z,7.28
2023-02-02T06:50:35.331Z,7.24
2023-02-02T06:51:35.554Z,7.28
2023-02-02T06:52:35.521Z,7.28
2023-02-02T06:53:35.492Z,7.33
2023-02-02T06:54:35.456Z,7.28
2023-02-02T06:55:35.536Z,7.28
2023-02-02T06:56:35.418Z,7.29
2023-02-02T06:57:35.379Z,7.17
2023-02-02T06:58:35.360Z,7.25
2023-02-02T06:59:35.342Z,7.17
2023-02-02T07:00:35.426Z,7.18
2023-02-02T07:01:35.303Z,7.15
2023-02-02T07:02:35.441Z,7.25
2023-02-02T07:03:35.311Z,7.13
2023-02-02T07:04:35.232Z,7.17
2023-02-02T07:05:36.135Z,7.15
2023-02-02T07:06:35.274Z,7.18
2023-02-02T07:07:35.146Z,7.18
2023-02-02T07:08:35.134Z,7.17
2023-02-02T07:09:35.086Z,7.15
2023-02-02T07:11:19.997Z,7.25
2023-02-02T07:11:40.215Z,7.2
2023-02-02T07:12:35.090Z,7.1
2023-02-02T07:13:35.239Z,7.18
2023-02-02T07:14:35.037Z,7.15
2023-02-02T07:15:34.949Z,7.24
2023-02-02T07:16:34.928Z,7.21
2023-02-02T07:17:34.900Z,7.18
2023-02-02T07:18:34.869Z,7.18
2023-02-02T07:19:34.872Z,7.17
2023-02-02T07:20:34.840Z,7.25
2023-02-02T07:21:34.892Z,7.2
2023-02-02T07:22:34.799Z,7.18
2023-02-02T07:23:34.762Z,7.11
2023-02-02T07:24:34.717Z,7.13
2023-02-02T07:25:34.699Z,7.21
2023-02-02T07:26:34.936Z,7.15
2023-02-02T07:27:34.680Z,7.18
2023-02-02T07:28:34.650Z,7.21
2023-02-02T07:29:34.809Z,7.2
2023-02-02T07:30:34.861Z,7.21
2023-02-02T07:31:38.327Z,7.15
2023-02-02T07:32:34.529Z,7.23
2023-02-02T07:33:34.280Z,7.17
2023-02-02T07:34:34.495Z,7.18
2023-02-02T07:35:34.475Z,7.21
2023-02-02T07:36:34.458Z,7.18
2023-02-02T07:37:34.408Z,7.14
2023-02-02T07:38:34.428Z,7.23
2023-02-02T07:39:34.389Z,7.2
2023-02-02T07:40:34.398Z,7.24
2023-02-02T07:41:34.323Z,7.15
2023-02-02T07:42:34.347Z,7.25
2023-02-02T07:43:34.293Z,7.25
2023-02-02T07:44:34.259Z,7.23
2023-02-02T07:45:34.250Z,7.28
2023-02-02T07:46:34.445Z,7.24
2023-02-02T07:47:34.215Z,7.28
2023-02-02T07:48:34.141Z,7.28
2023-02-02T07:49:34.136Z,7.28
2023-02-02T07:50:34.174Z,7.35
2023-02-02T07:51:34.151Z,7.31
2023-02-02T07:52:34.055Z,7.25
2023-02-02T07:53:34.233Z,7.35
2023-02-02T07:54:34.273Z,7.38
2023-02-02T07:55:34.801Z,7.38
2023-02-02T07:56:33.954Z,7.38
2023-02-02T07:57:33.922Z,7.28
2023-02-02T07:58:33.963Z,7.31
2023-02-02T07:59:36.992Z,7.35
2023-02-02T08:00:33.724Z,7.32
2023-02-02T08:01:34.040Z,7.32
2023-02-02T08:02:34.000Z,7.38
2023-02-02T08:03:33.556Z,7.31
2023-02-02T08:04:33.799Z,7.39
2023-02-02T08:05:33.851Z,7.29
2023-02-02T08:06:33.505Z,7.29
2023-02-02T08:07:33.687Z,7.4
2023-02-02T08:08:33.673Z,7.31
2023-02-02T08:09:33.716Z,7.36
2023-02-02T08:10:34.116Z,7.43
2023-02-02T08:11:33.620Z,7.32
2023-02-02T08:12:33.596Z,7.42
2023-02-02T08:13:33.336Z,7.38
2023-02-02T08:14:33.565Z,7.43
2023-02-02T08:15:33.524Z,7.43
2023-02-02T08:16:33.816Z,7.38
2023-02-02T08:17:33.443Z,7.47
2023-02-02T08:18:33.411Z,7.38
2023-02-02T08:19:33.139Z,7.47
2023-02-02T08:20:33.153Z,7.47
2023-02-02T08:21:33.371Z,7.47
2023-02-02T08:22:33.316Z,7.39
2023-02-02T08:23:33.291Z,7.42
2023-02-02T08:24:33.260Z,7.45
2023-02-02T08:25:33.022Z,7.5
2023-02-02T08:26:33.501Z,7.4
2023-02-02T08:27:33.210Z,7.48
2023-02-02T08:28:33.176Z,7.48
2023-02-02T08:29:33.169Z,7.47
2023-02-02T08:30:33.282Z,7.51
2023-02-02T08:31:33.329Z,7.5
2023-02-02T08:32:33.091Z,7.51
2023-02-02T08:33:33.481Z,7.53
2023-02-02T08:34:33.035Z,7.45
2023-02-02T08:35:32.991Z,7.56
2023-02-02T08:36:33.155Z,7.53
2023-02-02T08:37:32.951Z,7.51
2023-02-02T08:38:32.957Z,7.63
2023-02-02T08:39:32.435Z,7.58
2023-02-02T08:40:33.037Z,7.61
2023-02-02T08:41:32.863Z,7.58
2023-02-02T08:42:32.870Z,7.48
2023-02-02T08:43:32.920Z,7.61
2023-02-02T08:46:08.351Z,7.6
2023-02-02T08:46:21.344Z,7.56
2023-02-02T08:47:20.292Z,7.61
2023-02-02T08:48:20.003Z,7.61
2023-02-02T08:49:19.881Z,7.56
2023-02-02T08:50:19.816Z,7.56
2023-02-02T08:51:19.755Z,7.5
2023-02-02T08:52:19.701Z,7.6
2023-02-02T08:53:19.691Z,7.5
2023-02-02T08:54:19.664Z,7.56
2023-02-02T08:55:19.384Z,7.51
2023-02-02T08:56:19.598Z,7.56
2023-02-02T08:57:19.587Z,7.47
2023-02-02T08:58:19.555Z,7.51
2023-02-02T08:59:19.524Z,7.51
2023-02-02T09:00:19.504Z,7.57
2023-02-02T09:01:19.930Z,7.5
2023-02-02T09:02:19.600Z,7.53
2023-02-02T09:03:19.470Z,7.58
2023-02-02T09:04:19.486Z,7.53
2023-02-02T09:05:19.223Z,7.53
2023-02-02T09:06:19.392Z,7.48
2023-02-02T09:07:21.157Z,7.53
2023-02-02T09:08:19.363Z,7.51
2023-02-02T09:09:19.298Z,7.53
2023-02-02T09:10:19.271Z,7.57
2023-02-02T09:11:19.258Z,7.53
2023-02-02T09:12:18.988Z,7.47
2023-02-02T09:13:19.202Z,7.48
2023-02-02T09:14:19.192Z,7.5
2023-02-02T09:15:19.145Z,7.6
2023-02-02T09:16:19.267Z,7.48
2023-02-02T09:17:19.159Z,7.48
2023-02-02T09:18:19.082Z,7.61
2023-02-02T09:19:19.075Z,7.6
2023-02-02T09:20:20.750Z,7.54
2023-02-02T09:21:19.013Z,7.63
2023-02-02T09:22:18.995Z,7.63
2023-02-02T09:23:18.966Z,7.66
2023-02-02T09:24:18.945Z,7.56
2023-02-02T09:25:18.925Z,7.58
2023-02-02T09:26:18.782Z,7.61
2023-02-02T09:27:18.869Z,7.6
2023-02-02T09:28:18.602Z,7.58
2023-02-02T09:29:18.864Z,7.63
2023-02-02T09:30:18.894Z,7.66
2023-02-02T09:31:18.852Z,7.77
2023-02-02T09:32:18.829Z,7.69
2023-02-02T09:33:18.548Z,7.63
2023-02-02T09:34:18.712Z,7.67
2023-02-02T09:35:18.730Z,7.57
2023-02-02T09:36:18.420Z,7.6
2023-02-02T09:37:18.633Z,7.63
2023-02-02T09:38:18.612Z,7.58
2023-02-02T09:39:18.604Z,7.66
2023-02-02T09:40:18.309Z,7.77
2023-02-02T09:41:18.525Z,7.63
2023-02-02T09:42:18.280Z,7.72
2023-02-02T09:43:18.502Z,7.72
2023-02-02T09:44:18.219Z,7.76
2023-02-02T09:45:18.194Z,7.63
2023-02-02T09:46:18.681Z,7.61
2023-02-02T09:47:18.668Z,7.66
2023-02-02T09:48:18.408Z,7.67
2023-02-02T09:49:18.385Z,7.69
2023-02-02T09:50:18.440Z,7.63
2023-02-02T09:51:18.322Z,7.58
2023-02-02T09:52:18.310Z,7.63
2023-02-02T09:53:18.243Z,7.63
2023-02-02T09:54:18.256Z,7.63
2023-02-02T09:55:17.955Z,7.66
2023-02-02T09:56:18.173Z,7.63
2023-02-02T09:57:18.159Z,7.66
2023-02-02T09:58:18.135Z,7.69
2023-02-02T09:59:26.857Z,7.73
2023-02-02T10:00:17.848Z,7.73
2023-02-02T10:01:18.691Z,7.77
2023-02-02T10:02:18.335Z,7.83
2023-02-02T10:03:18.037Z,7.8
2023-02-02T10:04:18.141Z,7.8
2023-02-02T10:05:18.006Z,7.76
2023-02-02T10:06:17.933Z,7.77
2023-02-02T10:07:17.970Z,7.8
2023-02-02T10:08:36.813Z,7.77
2023-02-02T10:09:17.906Z,7.87
2023-02-02T10:10:20.180Z,7.85
2023-02-02T10:11:17.843Z,7.77
2023-02-02T10:12:17.819Z,7.77
2023-02-02T10:13:17.808Z,7.83
2023-02-02T10:14:17.836Z,7.8
2023-02-02T10:15:17.597Z,7.88
2023-02-02T10:16:17.941Z,7.82
2023-02-02T10:17:17.673Z,7.76
2023-02-02T10:18:17.636Z,7.79
2023-02-02T10:19:17.634Z,7.8
2023-02-02T10:20:17.653Z,7.85
2023-02-02T10:21:17.671Z,7.9
2023-02-02T10:22:17.401Z,7.88
2023-02-02T10:23:17.599Z,7.75
2023-02-02T10:24:17.503Z,7.75
2023-02-02T10:25:17.504Z,7.75
2023-02-02T10:26:17.313Z,7.75
2023-02-02T10:27:17.453Z,7.75
2023-02-02T10:28:17.419Z,7.76
2023-02-02T10:29:17.371Z,7.76
2023-02-02T10:30:17.345Z,7.76
2023-02-02T10:31:17.720Z,7.77
2023-02-02T10:32:17.462Z,7.75
2023-02-02T10:33:17.342Z,7.76
2023-02-02T10:34:17.022Z,7.79
2023-02-02T10:35:20.909Z,7.73
2023-02-02T10:36:17.265Z,7.76
2023-02-02T10:37:17.269Z,7.75
2023-02-02T10:38:16.947Z,7.77
2023-02-02T10:39:17.200Z,7.76
2023-02-02T10:40:17.236Z,7.73
2023-02-02T10:41:16.971Z,7.73
2023-02-02T10:42:17.094Z,7.76
2023-02-02T10:43:17.064Z,7.75
2023-02-02T10:44:17.072Z,7.73
2023-02-02T10:45:17.093Z,7.73
2023-02-02T10:46:17.147Z,7.82
2023-02-02T10:47:16.976Z,7.8
2023-02-02T10:48:17.029Z,7.91
2023-02-02T10:49:16.936Z,7.85
2023-02-02T10:50:17.085Z,7.85
2023-02-02T10:51:16.883Z,7.87
2023-02-02T10:52:16.896Z,7.79
2023-02-02T10:53:16.903Z,7.8
2023-02-02T10:54:16.810Z,7.85
2023-02-02T10:55:16.814Z,7.85
2023-02-02T10:56:16.777Z,7.83
2023-02-02T10:57:16.499Z,7.79
2023-02-02T10:58:16.742Z,7.83
2023-02-02T10:59:16.701Z,7.85
2023-02-02T11:00:16.665Z,7.87
2023-02-02T11:01:16.660Z,7.77
2023-02-02T11:02:25.601Z,7.9
2023-02-02T11:03:16.694Z,7.85
2023-02-02T11:04:16.605Z,7.83
2023-02-02T11:05:16.307Z,7.79
2023-02-02T11:06:16.590Z,7.82
2023-02-02T11:07:16.508Z,7.75
2023-02-02T11:08:16.486Z,7.79
2023-02-02T11:09:16.512Z,7.77
2023-02-02T11:10:16.270Z,7.77
2023-02-02T11:11:16.466Z,7.82
2023-02-02T11:12:16.516Z,7.83
2023-02-02T11:13:16.373Z,7.87
2023-02-02T11:14:16.349Z,7.82
2023-02-02T11:15:16.319Z,7.85
2023-02-02T11:16:16.429Z,7.85
2023-02-02T11:17:16.275Z,7.82
2023-02-02T11:18:16.031Z,7.82
2023-02-02T11:19:16.237Z,7.83
2023-02-02T11:20:16.236Z,7.82
2023-02-02T11:21:15.995Z,7.8
2023-02-02T11:22:16.171Z,7.9
2023-02-02T11:23:16.157Z,7.85
2023-02-02T11:24:16.125Z,7.88
2023-02-02T11:25:16.157Z,7.79
2023-02-02T11:26:16.085Z,7.8
2023-02-02T11:27:16.094Z,7.93
2023-02-02T11:28:15.831Z,7.8
2023-02-02T11:29:16.025Z,7.85
2023-02-02T11:30:16.102Z,7.88
2023-02-02T11:31:16.454Z,7.85
2023-02-02T11:32:15.687Z,7.93
2023-02-02T11:33:15.910Z,7.83
2023-02-02T11:34:15.907Z,7.93
2023-02-02T11:35:15.881Z,7.9
2023-02-02T11:36:15.841Z,7.91
2023-02-02T11:37:15.867Z,7.9
2023-02-02T11:38:15.808Z,7.95
2023-02-02T11:39:15.845Z,7.9
2023-02-02T11:40:15.893Z,7.95
2023-02-02T11:41:15.809Z,7.98
2023-02-02T11:42:15.717Z,7.97
2023-02-02T11:43:15.707Z,7.97
2023-02-02T11:44:15.657Z,8
2023-02-02T11:45:15.646Z,7.91
2023-02-02T11:46:15.726Z,7.97
2023-02-02T11:47:15.597Z,7.9
2023-02-02T11:48:15.566Z,7.88
2023-02-02T11:49:15.567Z,7.85
2023-02-02T11:50:15.564Z,7.87
2023-02-02T11:51:15.709Z,7.83
2023-02-02T11:52:16.463Z,7.82
2023-02-02T11:53:15.451Z,7.83
2023-02-02T11:54:15.441Z,7.8
2023-02-02T11:55:15.395Z,7.76
2023-02-02T11:56:15.388Z,7.77
2023-02-02T11:57:15.442Z,7.82
2023-02-02T11:58:16.899Z,7.8
2023-02-02T11:59:15.342Z,7.73
2023-02-02T12:00:15.274Z,7.76
2023-02-02T12:01:15.261Z,7.72
2023-02-02T12:02:15.604Z,7.75
2023-02-02T12:03:15.837Z,7.72
2023-02-02T12:04:15.321Z,7.76
2023-02-02T12:05:15.226Z,7.73
2023-02-02T12:06:14.932Z,7.72
2023-02-02T12:07:15.137Z,7.72
2023-02-02T12:08:15.132Z,7.75
2023-02-02T12:09:14.851Z,7.73
2023-02-02T12:10:14.820Z,7.77
2023-02-02T12:11:15.051Z,7.75
2023-02-02T12:12:14.781Z,7.75
2023-02-02T12:13:15.070Z,7.73
2023-02-02T12:14:15.010Z,7.72
2023-02-02T12:15:14.748Z,7.83
2023-02-02T12:16:15.035Z,7.77
2023-02-02T12:17:14.966Z,7.75
2023-02-02T12:18:14.916Z,7.72
2023-02-02T12:19:14.869Z,7.73
2023-02-02T12:20:14.677Z,7.75
2023-02-02T12:21:14.846Z,7.73
2023-02-02T12:22:16.713Z,7.73
2023-02-02T12:23:14.809Z,7.75
2023-02-02T12:24:14.763Z,7.61
2023-02-02T12:25:14.725Z,7.76
2023-02-02T12:26:14.719Z,7.72
2023-02-02T12:27:14.696Z,7.79
2023-02-02T12:28:16.287Z,7.66
2023-02-02T12:29:14.697Z,7.75
2023-02-02T12:30:14.674Z,7.73
2023-02-02T12:31:15.056Z,7.76
2023-02-02T12:32:14.567Z,7.76
2023-02-02T12:33:14.557Z,7.77
2023-02-02T12:34:16.751Z,7.73
2023-02-02T12:35:14.509Z,7.7
2023-02-02T12:36:13.998Z,7.76
2023-02-02T12:37:14.459Z,7.75
2023-02-02T12:38:14.440Z,7.72
2023-02-02T12:39:14.462Z,7.7
2023-02-02T12:40:16.254Z,7.75
2023-02-02T12:41:14.388Z,7.77
2023-02-02T12:42:14.351Z,7.75
2023-02-02T12:43:14.333Z,7.75
2023-02-02T12:44:14.086Z,7.76
2023-02-02T12:45:14.340Z,7.83
2023-02-02T12:46:16.931Z,7.8
2023-02-02T12:47:14.264Z,7.82
2023-02-02T12:48:14.200Z,7.75
2023-02-02T12:49:13.957Z,7.79
2023-02-02T12:50:14.059Z,7.72
2023-02-02T12:51:14.131Z,7.83
2023-02-02T12:52:16.205Z,7.8
2023-02-02T12:53:18.012Z,7.85
2023-02-02T12:54:52.774Z,7.79
2023-02-02T12:55:14.003Z,7.77
2023-02-02T12:56:13.978Z,7.8
2023-02-02T12:57:13.718Z,7.8
2023-02-02T12:58:14.009Z,7.83
2023-02-02T12:59:13.904Z,7.83
2023-02-02T13:00:13.803Z,7.79
2023-02-02T13:01:14.110Z,7.88
2023-02-02T13:02:13.940Z,7.8
2023-02-02T13:03:13.816Z,7.87
2023-02-02T13:04:13.773Z,7.8
2023-02-02T13:05:13.769Z,7.77
2023-02-02T13:06:13.691Z,7.82
2023-02-02T13:07:13.671Z,7.8
2023-02-02T13:08:13.413Z,7.87
2023-02-02T13:09:13.616Z,7.87
2023-02-02T13:10:13.777Z,7.87
2023-02-02T13:11:13.566Z,7.87
2023-02-02T13:12:13.543Z,7.95
2023-02-02T13:13:13.540Z,7.88
2023-02-02T13:14:13.469Z,7.95
2023-02-02T13:15:13.481Z,7.93
2023-02-02T13:16:13.577Z,7.9
2023-02-02T13:17:13.437Z,7.94
2023-02-02T13:18:13.383Z,7.9
2023-02-02T13:19:13.364Z,7.93
2023-02-02T13:20:13.320Z,8
2023-02-02T13:21:13.280Z,7.95
2023-02-02T13:22:13.011Z,7.95